Time;durP1;ratioP1;P1;durP2;ratioP2;P2;SDS_P1;SDS_P2;PMS_P1;PMS_P2;Temp;Humidity;BMP_temperature;BMP_pressure;BME280_temperature;BME280_humidity;BME280_pressure;Samples;Min_cycle;Max_cycle;Signal;HPM_P1;HPM_P2
2021/12/05 00:19:53;;;;;;;11.50;10.30;;;;;;;;;;5071181;28;20513;-59
2021/12/05 00:22:25;;;;;;;11.17;10.07;;;;;;;;;;5071056;28;20860;-58
2021/12/05 00:24:56;;;;;;;11.33;10.17;;;;;;;;;;5072110;28;20444;-56
2021/12/05 00:27:28;;;;;;;11.80;10.60;;;;;;;;;;5074532;28;20533;-57
2021/12/05 00:38:33;;;;;;;13.03;11.73;;;;;;;;;;5074614;28;20421;-57
2021/12/05 00:56:52;;;;;;;14.27;12.60;;;;;;;;;;5074266;28;20442;-57
2021/12/05 00:59:37;;;;;;;15.90;12.77;;;;;;;;;;5074142;28;20434;-58
2021/12/05 01:05:08;;;;;;;14.23;12.73;;;;;;;;;;5053928;28;20474;-57
2021/12/05 01:07:58;;;;;;;15.13;12.50;;;;;;;;;;5053607;28;20529;-57
2021/12/05 01:10:53;;;;;;;14.30;12.20;;;;;;;;;;5053717;28;20455;-57
2021/12/05 01:13:43;;;;;;;13.47;12.07;;;;;;;;;;5053729;28;20469;-58
2021/12/05 01:16:11;;;;;;;14.97;12.43;;;;;;;;;;5053691;28;20447;-58
2021/12/05 01:18:37;;;;;;;14.10;12.30;;;;;;;;;;5053758;28;21037;-58
2021/12/05 01:21:07;;;;;;;14.67;12.47;;;;;;;;;;5053819;28;20438;-57
2021/12/05 01:26:05;;;;;;;14.67;12.83;;;;;;;;;;5051837;28;21057;-57
2021/12/05 01:31:34;;;;;;;14.10;12.10;;;;;;;;;;5053454;28;20434;-57
2021/12/05 01:42:26;;;;;;;15.97;13.43;;;;;;;;;;5053311;28;20463;-57
2021/12/05 01:47:57;;;;;;;18.90;14.60;;;;;;;;;;5053387;28;20945;-57
2021/12/05 01:50:48;;;;;;;18.37;13.93;;;;;;;;;;5053037;28;20450;-58
2021/12/05 02:11:43;;;;;;;22.90;17.40;;;;;;;;;;5072724;28;20442;-58
2021/12/05 02:29:37;;;;;;;22.93;15.33;;;;;;;;;;5072461;28;20974;-58
2021/12/05 02:41:42;;;;;;;22.47;15.33;;;;;;;;;;5072474;28;20764;-58
2021/12/05 02:44:22;;;;;;;21.40;15.50;;;;;;;;;;5071950;28;20484;-58
2021/12/05 02:46:50;;;;;;;22.40;15.97;;;;;;;;;;5072257;28;20532;-58
2021/12/05 02:49:16;;;;;;;22.90;15.77;;;;;;;;;;5071495;28;20795;-57
2021/12/05 02:51:51;;;;;;;19.43;15.00;;;;;;;;;;5072286;28;20434;-58
2021/12/05 02:54:18;;;;;;;17.93;14.63;;;;;;;;;;5072055;28;20433;-58
2021/12/05 02:56:49;;;;;;;22.57;15.30;;;;;;;;;;5071939;28;20461;-59
2021/12/05 02:59:23;;;;;;;21.00;15.27;;;;;;;;;;5071938;28;20429;-59
2021/12/05 03:01:56;;;;;;;20.33;14.60;;;;;;;;;;5052094;28;20497;-59
2021/12/05 03:04:24;;;;;;;24.30;15.97;;;;;;;;;;5051641;28;20503;-59
2021/12/05 03:06:52;;;;;;;22.07;15.10;;;;;;;;;;5051766;28;20445;-58
2021/12/05 03:09:21;;;;;;;26.67;15.33;;;;;;;;;;5051838;28;20480;-58
2021/12/05 03:11:48;;;;;;;18.17;14.83;;;;;;;;;;5051871;28;20467;-58
2021/12/05 03:14:14;;;;;;;21.13;14.70;;;;;;;;;;5051643;28;20443;-58
2021/12/05 03:16:40;;;;;;;19.00;15.03;;;;;;;;;;5051847;28;20492;-57
2021/12/05 03:19:07;;;;;;;23.73;16.03;;;;;;;;;;5051719;28;20670;-58
2021/12/05 03:21:35;;;;;;;23.23;16.13;;;;;;;;;;5051665;28;20427;-58
2021/12/05 03:24:03;;;;;;;22.77;14.43;;;;;;;;;;5051591;28;20478;-58
2021/12/05 03:26:32;;;;;;;20.40;16.10;;;;;;;;;;5051646;28;20438;-59
2021/12/05 03:28:58;;;;;;;26.23;16.93;;;;;;;;;;5051710;28;20527;-57
2021/12/05 03:31:25;;;;;;;22.63;16.53;;;;;;;;;;5051514;28;20430;-57
2021/12/05 03:33:51;;;;;;;20.40;15.60;;;;;;;;;;5051656;28;20489;-56
2021/12/05 03:36:18;;;;;;;26.10;16.60;;;;;;;;;;5051599;28;20431;-58
2021/12/05 03:38:44;;;;;;;22.77;17.00;;;;;;;;;;5051571;28;20542;-58
2021/12/05 03:41:11;;;;;;;21.93;15.57;;;;;;;;;;5051291;28;20790;-57
2021/12/05 03:43:39;;;;;;;27.07;17.27;;;;;;;;;;5051413;28;20921;-57
2021/12/05 03:46:06;;;;;;;24.83;17.93;;;;;;;;;;5051474;28;20453;-57
2021/12/05 03:48:35;;;;;;;26.13;17.83;;;;;;;;;;5051315;28;20500;-58
2021/12/05 03:51:01;;;;;;;25.87;17.77;;;;;;;;;;5051403;28;20867;-57
2021/12/05 03:53:27;;;;;;;26.67;18.70;;;;;;;;;;5051380;28;20500;-58
2021/12/05 03:55:55;;;;;;;23.50;17.10;;;;;;;;;;5051437;28;20937;-58
2021/12/05 03:58:21;;;;;;;26.10;17.27;;;;;;;;;;5051367;28;20200;-58
2021/12/05 04:00:50;;;;;;;26.27;18.63;;;;;;;;;;5065109;28;20561;-59
2021/12/05 04:03:17;;;;;;;24.03;18.00;;;;;;;;;;5074927;28;20568;-57
2021/12/05 04:05:44;;;;;;;22.33;17.93;;;;;;;;;;5075064;28;20465;-58
2021/12/05 04:08:11;;;;;;;23.33;18.00;;;;;;;;;;5074490;28;20449;-59
2021/12/05 04:10:39;;;;;;;23.63;18.83;;;;;;;;;;5075082;28;20461;-58
2021/12/05 04:13:05;;;;;;;22.43;17.83;;;;;;;;;;5074771;28;20437;-57
2021/12/05 04:15:31;;;;;;;25.43;18.93;;;;;;;;;;5074906;28;20429;-57
2021/12/05 04:17:59;;;;;;;25.23;18.27;;;;;;;;;;5074826;28;20524;-59
2021/12/05 04:20:25;;;;;;;25.10;18.77;;;;;;;;;;5074890;28;20440;-59
2021/12/05 04:22:53;;;;;;;28.33;19.40;;;;;;;;;;5074493;28;20924;-59
2021/12/05 04:25:19;;;;;;;29.00;18.60;;;;;;;;;;5074499;28;20434;-59
2021/12/05 04:27:46;;;;;;;29.77;18.97;;;;;;;;;;5074807;28;20433;-58
2021/12/05 04:30:13;;;;;;;27.93;19.50;;;;;;;;;;5074501;28;20444;-59
2021/12/05 04:32:40;;;;;;;30.70;18.80;;;;;;;;;;5074577;28;20445;-58
2021/12/05 04:35:08;;;;;;;24.80;18.47;;;;;;;;;;5074513;28;20434;-59
2021/12/05 04:37:34;;;;;;;36.77;20.77;;;;;;;;;;5074450;28;20537;-58
2021/12/05 04:40:00;;;;;;;29.23;20.17;;;;;;;;;;5074543;28;20446;-56
2021/12/05 04:42:26;;;;;;;33.23;21.17;;;;;;;;;;5074460;28;20438;-58
2021/12/05 04:44:52;;;;;;;30.97;20.77;;;;;;;;;;5074278;28;20485;-58
2021/12/05 04:47:18;;;;;;;24.07;20.07;;;;;;;;;;5074308;28;20513;-58
2021/12/05 04:49:46;;;;;;;28.17;20.77;;;;;;;;;;5074420;28;20434;-58
2021/12/05 04:52:15;;;;;;;26.13;19.77;;;;;;;;;;5073742;28;20946;-58
2021/12/05 04:54:41;;;;;;;24.67;18.60;;;;;;;;;;5074133;28;20434;-58
2021/12/05 04:57:07;;;;;;;28.33;19.83;;;;;;;;;;5074091;28;20429;-57
2021/12/05 04:59:36;;;;;;;27.10;19.53;;;;;;;;;;5073793;28;20854;-59
2021/12/05 05:02:03;;;;;;;25.03;17.70;;;;;;;;;;5073900;28;20422;-58
2021/12/05 05:04:30;;;;;;;26.53;18.10;;;;;;;;;;5073662;28;20822;-58
2021/12/05 05:06:58;;;;;;;26.97;18.27;;;;;;;;;;5073964;28;20441;-58
2021/12/05 05:09:25;;;;;;;27.47;18.60;;;;;;;;;;5073753;28;20441;-58
2021/12/05 05:11:51;;;;;;;22.90;17.73;;;;;;;;;;5073692;28;20442;-58
2021/12/05 05:14:17;;;;;;;25.33;19.17;;;;;;;;;;5073793;28;20944;-58
2021/12/05 05:16:44;;;;;;;27.97;19.63;;;;;;;;;;5073733;28;20434;-58
2021/12/05 05:19:12;;;;;;;25.50;19.50;;;;;;;;;;5073594;28;20480;-58
2021/12/05 05:21:52;;;;;;;27.40;19.80;;;;;;;;;;5073972;28;20426;-58
2021/12/05 05:40:43;;;;;;;26.23;20.20;;;;;;;;;;5073633;28;20479;-57
2021/12/05 05:46:04;;;;;;;28.60;19.53;;;;;;;;;;5073279;28;20438;-57
2021/12/05 05:50:56;;;;;;;26.40;18.83;;;;;;;;;;5073181;28;20524;-57
2021/12/05 05:53:23;;;;;;;26.37;18.43;;;;;;;;;;5072811;28;20438;-58
2021/12/05 05:55:49;;;;;;;26.40;17.83;;;;;;;;;;5072981;28;20433;-57
2021/12/05 05:58:18;;;;;;;23.60;16.63;;;;;;;;;;5072911;28;20842;-57
2021/12/05 06:01:00;;;;;;;21.63;16.23;;;;;;;;;;5072899;28;20473;-57
2021/12/05 06:03:26;;;;;;;25.40;16.60;;;;;;;;;;5072732;28;20466;-57
2021/12/05 06:05:54;;;;;;;20.80;16.00;;;;;;;;;;5072748;28;20837;-57
2021/12/05 06:08:23;;;;;;;23.03;15.77;;;;;;;;;;5072568;28;20468;-57
2021/12/05 06:10:49;;;;;;;20.63;15.77;;;;;;;;;;5072631;28;20521;-57
2021/12/05 06:13:18;;;;;;;23.00;15.10;;;;;;;;;;5072649;28;20552;-57
2021/12/05 06:15:45;;;;;;;22.50;15.47;;;;;;;;;;5072606;28;20940;-58
2021/12/05 06:18:11;;;;;;;21.67;14.10;;;;;;;;;;5072452;28;20429;-57
2021/12/05 06:20:37;;;;;;;18.67;14.30;;;;;;;;;;5072561;28;20434;-57
2021/12/05 06:23:03;;;;;;;25.17;15.20;;;;;;;;;;5071601;28;20986;-57
2021/12/05 06:25:31;;;;;;;20.97;14.27;;;;;;;;;;5072446;28;20222;-58
2021/12/05 06:28:01;;;;;;;22.07;14.77;;;;;;;;;;5072467;28;20434;-57
2021/12/05 06:38:12;;;;;;;19.73;13.47;;;;;;;;;;5072198;28;20409;-58
2021/12/05 06:40:53;;;;;;;20.77;14.40;;;;;;;;;;5072258;28;20468;-57
2021/12/05 06:46:16;;;;;;;21.87;14.07;;;;;;;;;;5072283;28;20913;-56
2021/12/05 06:48:43;;;;;;;17.50;13.83;;;;;;;;;;5072163;28;20441;-56
2021/12/05 06:51:09;;;;;;;20.57;13.27;;;;;;;;;;5069867;28;20873;-56
2021/12/05 06:53:36;;;;;;;18.50;13.97;;;;;;;;;;5071916;28;20446;-56
2021/12/05 06:56:02;;;;;;;18.53;13.37;;;;;;;;;;5072078;28;20465;-56
2021/12/05 06:58:28;;;;;;;18.13;13.33;;;;;;;;;;5071884;28;20438;-56
2021/12/05 07:00:54;;;;;;;21.30;14.33;;;;;;;;;;5071661;28;20470;-57
2021/12/05 07:03:21;;;;;;;21.80;13.80;;;;;;;;;;5071897;28;20743;-56
2021/12/05 07:06:06;;;;;;;22.30;12.87;;;;;;;;;;5072111;28;20485;-56
2021/12/05 07:08:36;;;;;;;17.90;12.83;;;;;;;;;;5071781;28;20509;-56
2021/12/05 07:16:22;;;;;;;20.27;15.03;;;;;;;;;;5071627;28;20430;-56
2021/12/05 07:19:06;;;;;;;19.90;13.77;;;;;;;;;;5071696;28;20441;-56
2021/12/05 07:21:45;;;;;;;22.43;14.00;;;;;;;;;;5071693;28;20482;-56
2021/12/05 07:27:08;;;;;;;20.43;12.77;;;;;;;;;;5071476;28;20469;-56
2021/12/05 07:40:52;;;;;;;18.37;10.67;;;;;;;;;;5069118;28;20643;-56
2021/12/05 07:43:18;;;;;;;14.97;9.43;;;;;;;;;;5075351;28;20473;-56
2021/12/05 07:45:57;;;;;;;16.17;9.23;;;;;;;;;;5075362;28;20438;-56
2021/12/05 07:48:28;;;;;;;14.03;10.40;;;;;;;;;;5075356;28;21157;-57
2021/12/05 07:51:07;;;;;;;20.10;10.00;;;;;;;;;;5075453;28;20433;-56
2021/12/05 07:53:47;;;;;;;16.67;9.90;;;;;;;;;;5075421;28;20473;-56
2021/12/05 07:56:23;;;;;;;15.37;8.90;;;;;;;;;;5075280;28;20421;-56
2021/12/05 08:15:14;;;;;;;14.13;9.10;;;;;;;;;;5074903;28;20470;-58
2021/12/05 08:17:41;;;;;;;11.73;9.90;;;;;;;;;;5075042;28;20798;-55
2021/12/05 08:20:09;;;;;;;15.80;9.00;;;;;;;;;;5074726;28;20429;-59
2021/12/05 08:22:37;;;;;;;16.77;9.67;;;;;;;;;;5074698;28;20536;-56
2021/12/05 08:25:13;;;;;;;14.83;8.50;;;;;;;;;;5074762;28;20842;-56
2021/12/05 08:27:43;;;;;;;16.83;8.87;;;;;;;;;;5075006;28;20444;-58
2021/12/05 08:30:14;;;;;;;13.07;8.07;;;;;;;;;;5074742;28;20468;-58
2021/12/05 08:32:57;;;;;;;13.57;8.47;;;;;;;;;;5072725;28;20434;-57
2021/12/05 08:35:48;;;;;;;11.83;7.73;;;;;;;;;;5074266;28;20770;-57
2021/12/05 08:41:30;;;;;;;13.50;7.03;;;;;;;;;;5074325;28;20940;-57
2021/12/05 08:43:54;;;;;;;13.63;7.17;;;;;;;;;;5073404;28;20485;-57
2021/12/05 09:22:18;;;;;;;10.73;4.50;;;;;;;;;;5073466;28;20425;-57
2021/12/05 09:24:50;;;;;;;10.43;4.90;;;;;;;;;;5073175;28;20523;-57
2021/12/05 09:27:46;;;;;;;10.23;4.63;;;;;;;;;;5073476;28;20433;-57
2021/12/05 10:02:50;;;;;;;6.33;3.30;;;;;;;;;;5072803;28;20326;-57
2021/12/05 10:08:26;;;;;;;6.17;3.27;;;;;;;;;;5072572;28;20422;-59
2021/12/05 10:11:11;;;;;;;9.70;3.23;;;;;;;;;;5072243;28;20196;-58
2021/12/05 10:26:44;;;;;;;8.97;3.67;;;;;;;;;;5072486;28;20421;-57
2021/12/05 10:37:47;;;;;;;10.47;3.37;;;;;;;;;;5072366;28;20737;-57
2021/12/05 10:40:16;;;;;;;8.13;4.20;;;;;;;;;;5072205;28;20199;-57
2021/12/05 10:42:44;;;;;;;9.80;4.50;;;;;;;;;;5072406;28;20509;-58
2021/12/05 10:45:26;;;;;;;8.50;3.20;;;;;;;;;;5072155;28;20262;-57
2021/12/05 10:47:55;;;;;;;10.03;3.60;;;;;;;;;;5072260;28;20347;-57
2021/12/05 10:50:29;;;;;;;5.60;2.53;;;;;;;;;;5072239;28;20200;-58
2021/12/05 10:53:09;;;;;;;9.40;3.20;;;;;;;;;;5071871;28;20812;-57
2021/12/05 10:55:36;;;;;;;7.97;3.40;;;;;;;;;;5069321;28;20624;-57
2021/12/05 10:58:03;;;;;;;4.73;2.87;;;;;;;;;;5072093;28;20218;-57
2021/12/05 11:00:29;;;;;;;6.43;2.57;;;;;;;;;;5071710;28;20832;-57
2021/12/05 11:03:11;;;;;;;6.23;2.50;;;;;;;;;;5071795;28;20430;-57
2021/12/05 11:05:39;;;;;;;7.00;2.93;;;;;;;;;;5072014;28;20285;-58
2021/12/05 11:08:25;;;;;;;8.43;2.73;;;;;;;;;;5071535;28;20430;-58
2021/12/05 11:10:51;;;;;;;5.63;2.60;;;;;;;;;;5071923;28;20433;-58
2021/12/05 11:13:27;;;;;;;7.47;3.30;;;;;;;;;;5071891;28;20192;-60
2021/12/05 11:15:53;;;;;;;8.07;2.80;;;;;;;;;;5072024;28;20485;-57
2021/12/05 11:18:34;;;;;;;6.57;2.77;;;;;;;;;;5071779;28;20726;-57
2021/12/05 11:21:01;;;;;;;7.27;2.57;;;;;;;;;;5071042;28;20426;-58
2021/12/05 11:23:27;;;;;;;5.83;2.50;;;;;;;;;;5071698;28;20207;-58
2021/12/05 11:25:53;;;;;;;6.63;2.60;;;;;;;;;;5071661;28;20532;-58
2021/12/05 11:28:24;;;;;;;6.83;2.30;;;;;;;;;;5071695;28;20517;-58
2021/12/05 11:30:50;;;;;;;9.57;3.20;;;;;;;;;;5071831;28;20206;-57
2021/12/05 11:33:19;;;;;;;5.80;2.67;;;;;;;;;;5071719;28;20203;-58
2021/12/05 11:35:48;;;;;;;4.43;2.30;;;;;;;;;;5071730;28;20473;-57
2021/12/05 11:38:16;;;;;;;8.53;2.70;;;;;;;;;;5071592;28;20245;-58
2021/12/05 11:40:47;;;;;;;6.20;2.50;;;;;;;;;;5071591;28;20466;-57
2021/12/05 11:43:15;;;;;;;5.93;2.50;;;;;;;;;;5071670;28;20200;-57
2021/12/05 11:45:52;;;;;;;6.47;2.43;;;;;;;;;;5071430;28;20465;-59
2021/12/05 11:48:21;;;;;;;9.87;3.13;;;;;;;;;;5069809;28;20210;-58
2021/12/05 11:50:47;;;;;;;6.80;2.53;;;;;;;;;;5071524;28;20473;-59
2021/12/05 11:53:13;;;;;;;6.53;2.70;;;;;;;;;;5071347;28;20955;-58
2021/12/05 11:55:41;;;;;;;7.27;2.30;;;;;;;;;;5071617;28;20607;-59
2021/12/05 11:58:15;;;;;;;6.43;2.10;;;;;;;;;;5071187;28;20442;-59
2021/12/05 12:00:41;;;;;;;7.13;2.23;;;;;;;;;;5071273;28;20235;-58
2021/12/05 12:03:07;;;;;;;8.17;2.90;;;;;;;;;;5071364;28;20688;-58
2021/12/05 12:05:37;;;;;;;7.30;3.17;;;;;;;;;;5071074;28;20227;-58
2021/12/05 12:08:07;;;;;;;5.47;2.40;;;;;;;;;;5071397;28;20662;-58
2021/12/05 12:10:35;;;;;;;5.57;2.37;;;;;;;;;;5071303;28;20203;-58
2021/12/05 12:13:04;;;;;;;7.00;2.27;;;;;;;;;;5071384;28;20199;-58
2021/12/05 12:15:31;;;;;;;4.50;2.13;;;;;;;;;;5071239;28;20196;-57
2021/12/05 12:18:06;;;;;;;6.33;2.50;;;;;;;;;;5071355;28;20211;-60
2021/12/05 12:20:33;;;;;;;4.53;1.97;;;;;;;;;;5070785;28;20206;-58
2021/12/05 12:22:59;;;;;;;6.73;2.37;;;;;;;;;;5072774;28;20195;-58
2021/12/05 12:25:26;;;;;;;6.03;2.40;;;;;;;;;;5073430;28;20216;-58
2021/12/05 12:27:53;;;;;;;6.73;2.17;;;;;;;;;;5074212;28;20195;-58
2021/12/05 12:30:25;;;;;;;7.40;2.20;;;;;;;;;;5074074;28;20277;-58
2021/12/05 12:32:53;;;;;;;5.37;2.00;;;;;;;;;;5074095;28;20220;-59
2021/12/05 12:35:22;;;;;;;5.83;2.53;;;;;;;;;;5074229;28;20187;-57
2021/12/05 12:38:00;;;;;;;4.93;2.00;;;;;;;;;;5074187;28;20871;-58
2021/12/05 12:40:34;;;;;;;10.87;2.50;;;;;;;;;;5073970;28;20551;-58
2021/12/05 12:43:00;;;;;;;7.33;3.00;;;;;;;;;;5074255;28;20249;-57
2021/12/05 12:45:28;;;;;;;8.33;3.20;;;;;;;;;;5073931;28;20254;-58
2021/12/05 12:47:55;;;;;;;6.53;2.50;;;;;;;;;;5073994;28;20728;-58
2021/12/05 12:50:26;;;;;;;4.97;2.20;;;;;;;;;;5073970;28;20195;-59
2021/12/05 12:53:00;;;;;;;6.90;2.63;;;;;;;;;;5073941;28;20552;-58
2021/12/05 12:55:27;;;;;;;8.67;2.80;;;;;;;;;;5073814;28;20230;-57
2021/12/05 12:57:53;;;;;;;4.80;2.67;;;;;;;;;;5073935;28;20226;-58
2021/12/05 13:00:20;;;;;;;3.67;2.50;;;;;;;;;;5073673;28;20235;-58
2021/12/05 13:05:42;;;;;;;6.07;2.27;;;;;;;;;;5073746;28;20227;-58
2021/12/05 13:10:58;;;;;;;7.13;2.50;;;;;;;;;;5073690;28;20195;-58
2021/12/05 13:13:27;;;;;;;4.83;2.30;;;;;;;;;;5073559;28;20221;-57
2021/12/05 13:15:57;;;;;;;5.37;2.37;;;;;;;;;;5074013;28;20206;-58
2021/12/05 13:18:30;;;;;;;5.93;2.70;;;;;;;;;;5073693;28;20873;-58
2021/12/05 13:21:04;;;;;;;7.13;2.50;;;;;;;;;;5073620;28;20207;-58
2021/12/05 13:23:33;;;;;;;9.27;2.80;;;;;;;;;;5073604;28;20633;-58
2021/12/05 13:26:02;;;;;;;9.17;2.73;;;;;;;;;;5073568;28;20196;-58
2021/12/05 13:28:32;;;;;;;5.47;2.63;;;;;;;;;;5073608;28;20857;-58
2021/12/05 13:30:59;;;;;;;8.37;2.80;;;;;;;;;;5073710;28;20195;-58
2021/12/05 13:33:28;;;;;;;4.73;2.27;;;;;;;;;;5073187;28;20211;-58
2021/12/05 13:35:58;;;;;;;8.67;3.17;;;;;;;;;;5073581;28;20195;-58
2021/12/05 13:38:32;;;;;;;6.57;3.33;;;;;;;;;;5073301;28;20253;-60
2021/12/05 13:41:09;;;;;;;4.60;3.30;;;;;;;;;;5073125;28;20202;-57
2021/12/05 13:43:35;;;;;;;11.23;2.60;;;;;;;;;;5068887;28;20218;-56
2021/12/05 13:46:03;;;;;;;7.87;2.73;;;;;;;;;;5073113;28;21008;-54
2021/12/05 13:48:29;;;;;;;4.73;2.50;;;;;;;;;;5073238;28;20468;-55
2021/12/05 13:51:01;;;;;;;5.90;2.63;;;;;;;;;;5073103;28;20210;-56
2021/12/05 13:53:28;;;;;;;6.40;3.30;;;;;;;;;;5073029;28;20203;-55
2021/12/05 13:56:15;;;;;;;6.73;3.00;;;;;;;;;;5072940;28;20191;-55
2021/12/05 13:58:45;;;;;;;7.73;2.73;;;;;;;;;;5066407;28;20203;-56
2021/12/05 14:01:14;;;;;;;6.33;3.13;;;;;;;;;;5072735;28;20242;-55
2021/12/05 14:03:46;;;;;;;8.57;4.13;;;;;;;;;;5072855;28;20283;-55
2021/12/05 14:06:30;;;;;;;7.93;3.90;;;;;;;;;;5072790;28;20220;-55
2021/12/05 14:08:59;;;;;;;5.67;3.40;;;;;;;;;;5072835;28;20462;-57
2021/12/05 14:11:25;;;;;;;5.33;3.73;;;;;;;;;;5072518;28;20279;-57
2021/12/05 14:13:52;;;;;;;7.50;4.53;;;;;;;;;;5072757;28;20488;-57
2021/12/05 14:16:18;;;;;;;6.47;4.43;;;;;;;;;;5072644;28;20192;-57
2021/12/05 14:18:45;;;;;;;7.60;4.27;;;;;;;;;;5072783;28;20202;-57
2021/12/05 14:21:11;;;;;;;9.13;5.43;;;;;;;;;;5072581;28;20682;-57
2021/12/05 14:23:39;;;;;;;9.83;4.60;;;;;;;;;;5072379;28;20661;-57
2021/12/05 14:26:12;;;;;;;6.17;4.07;;;;;;;;;;5072512;28;20218;-58
2021/12/05 14:28:38;;;;;;;7.60;4.33;;;;;;;;;;5072524;28;20203;-58
2021/12/05 14:31:04;;;;;;;6.33;3.80;;;;;;;;;;5072515;28;20204;-62
2021/12/05 14:33:45;;;;;;;7.00;3.80;;;;;;;;;;5072305;28;20202;-57
2021/12/05 14:36:18;;;;;;;6.40;3.87;;;;;;;;;;5072251;28;20609;-57
2021/12/05 14:38:46;;;;;;;5.53;3.40;;;;;;;;;;5072211;28;20437;-57
2021/12/05 14:41:12;;;;;;;10.67;3.87;;;;;;;;;;5072466;28;20195;-58
2021/12/05 14:43:38;;;;;;;9.60;4.40;;;;;;;;;;5071774;28;20519;-57
2021/12/05 14:46:04;;;;;;;7.20;3.70;;;;;;;;;;5072290;28;21232;-58
2021/12/05 14:48:30;;;;;;;7.43;3.07;;;;;;;;;;5072030;28;20203;-58
2021/12/05 14:50:59;;;;;;;7.23;3.37;;;;;;;;;;5071885;28;20912;-58
2021/12/05 14:53:26;;;;;;;6.37;3.30;;;;;;;;;;5071914;28;20203;-59
2021/12/05 14:55:58;;;;;;;11.23;4.00;;;;;;;;;;5072182;28;20435;-58
2021/12/05 14:58:25;;;;;;;8.47;4.47;;;;;;;;;;5071733;28;20601;-58
2021/12/05 15:00:54;;;;;;;10.80;5.87;;;;;;;;;;5071750;28;20539;-57
2021/12/05 15:03:22;;;;;;;10.70;6.07;;;;;;;;;;5071781;28;20442;-58
2021/12/05 15:05:50;;;;;;;9.10;6.73;;;;;;;;;;5071563;28;20489;-58
2021/12/05 15:08:17;;;;;;;10.43;7.07;;;;;;;;;;5053231;28;20211;-58
2021/12/05 15:10:45;;;;;;;13.63;8.10;;;;;;;;;;5071730;28;20434;-58
2021/12/05 15:13:14;;;;;;;13.17;6.90;;;;;;;;;;5071785;28;20444;-58
2021/12/05 15:15:40;;;;;;;14.17;6.43;;;;;;;;;;5071893;28;20203;-57
2021/12/05 15:18:13;;;;;;;11.00;6.63;;;;;;;;;;5071721;28;20207;-59
2021/12/05 15:20:39;;;;;;;9.27;6.13;;;;;;;;;;5071563;28;20441;-58
2021/12/05 15:23:06;;;;;;;8.87;6.97;;;;;;;;;;5071967;28;20495;-59
2021/12/05 15:25:33;;;;;;;10.27;7.40;;;;;;;;;;5071450;28;20234;-59
2021/12/05 15:27:59;;;;;;;7.37;5.93;;;;;;;;;;5071541;28;20487;-58
2021/12/05 15:30:28;;;;;;;11.03;5.90;;;;;;;;;;5071524;28;20534;-59
2021/12/05 15:32:56;;;;;;;15.77;9.20;;;;;;;;;;5071707;28;20441;-58
2021/12/05 15:35:24;;;;;;;17.13;10.10;;;;;;;;;;5071150;28;20912;-59
2021/12/05 15:37:51;;;;;;;15.33;9.67;;;;;;;;;;5071528;28;20495;-58
2021/12/05 15:40:18;;;;;;;11.27;6.63;;;;;;;;;;5071582;28;20806;-60
2021/12/05 15:42:48;;;;;;;12.17;6.97;;;;;;;;;;5071542;28;20495;-57
2021/12/05 15:45:15;;;;;;;8.43;4.97;;;;;;;;;;5071483;28;20216;-59
2021/12/05 15:47:45;;;;;;;9.57;4.87;;;;;;;;;;5071398;28;20500;-58
2021/12/05 15:50:11;;;;;;;11.33;5.77;;;;;;;;;;5071405;28;20261;-59
2021/12/05 15:52:39;;;;;;;9.93;5.80;;;;;;;;;;5071098;28;20480;-59
2021/12/05 15:55:07;;;;;;;7.47;5.70;;;;;;;;;;5072763;28;20924;-59
2021/12/05 15:57:35;;;;;;;11.23;5.63;;;;;;;;;;5075195;28;20454;-58
2021/12/05 16:00:04;;;;;;;12.10;6.67;;;;;;;;;;5074938;28;20481;-58
2021/12/05 16:02:30;;;;;;;12.10;7.20;;;;;;;;;;5075199;28;20430;-59
2021/12/05 16:04:57;;;;;;;12.33;8.00;;;;;;;;;;5074858;28;20901;-58
2021/12/05 16:07:28;;;;;;;12.97;8.87;;;;;;;;;;5074748;28;20727;-57
2021/12/05 16:10:07;;;;;;;11.80;9.83;;;;;;;;;;5073513;28;20433;-57
2021/12/05 16:12:37;;;;;;;19.33;11.10;;;;;;;;;;5075048;28;20931;-57
2021/12/05 16:15:03;;;;;;;16.07;11.80;;;;;;;;;;5075080;28;20484;-58
2021/12/05 16:17:30;;;;;;;16.10;12.03;;;;;;;;;;5075322;28;20429;-62
2021/12/05 16:20:21;;;;;;;16.27;12.87;;;;;;;;;;5074580;28;20977;-57
2021/12/05 16:23:08;;;;;;;20.13;12.83;;;;;;;;;;5075013;28;20811;-59
2021/12/05 16:25:36;;;;;;;18.17;12.83;;;;;;;;;;5074463;28;20473;-62
2021/12/05 16:28:04;;;;;;;19.30;13.47;;;;;;;;;;5074603;28;20520;-59
2021/12/05 16:30:32;;;;;;;20.00;14.63;;;;;;;;;;5074657;28;20528;-59
2021/12/05 16:32:59;;;;;;;22.80;15.73;;;;;;;;;;5074742;28;20517;-59
2021/12/05 16:35:26;;;;;;;21.77;15.27;;;;;;;;;;5074624;28;20438;-60
2021/12/05 16:37:52;;;;;;;18.80;14.90;;;;;;;;;;5074374;28;20461;-59
2021/12/05 16:40:20;;;;;;;20.73;15.50;;;;;;;;;;5074627;28;20446;-60
2021/12/05 16:42:46;;;;;;;21.13;16.47;;;;;;;;;;5074759;28;20465;-59
2021/12/05 16:45:12;;;;;;;21.97;16.03;;;;;;;;;;5074445;28;20868;-60
2021/12/05 16:47:39;;;;;;;21.77;16.47;;;;;;;;;;5074298;28;20442;-60
2021/12/05 16:50:13;;;;;;;19.07;14.63;;;;;;;;;;5074189;28;20977;-59
2021/12/05 16:52:44;;;;;;;19.37;14.77;;;;;;;;;;5074435;28;20445;-59
2021/12/05 16:55:21;;;;;;;17.27;14.20;;;;;;;;;;5074152;28;20430;-62
2021/12/05 16:58:14;;;;;;;21.23;14.97;;;;;;;;;;5074658;28;20574;-60
2021/12/05 17:00:39;;;;;;;22.63;15.20;;;;;;;;;;5073626;28;20474;-59
2021/12/05 17:03:07;;;;;;;19.77;15.40;;;;;;;;;;5074381;28;20433;-60
2021/12/05 17:05:36;;;;;;;22.10;16.67;;;;;;;;;;5073856;28;20486;-60
2021/12/05 17:08:11;;;;;;;22.30;16.70;;;;;;;;;;5073620;28;20513;-59
2021/12/05 17:10:39;;;;;;;22.03;16.23;;;;;;;;;;5073938;28;20441;-60
2021/12/05 17:13:18;;;;;;;23.80;17.30;;;;;;;;;;5074167;28;20437;-60
2021/12/05 17:15:46;;;;;;;22.73;15.47;;;;;;;;;;5074116;28;20444;-58
2021/12/05 17:18:14;;;;;;;20.17;14.73;;;;;;;;;;5073946;28;20920;-59
2021/12/05 17:20:44;;;;;;;18.57;14.93;;;;;;;;;;5073687;28;20442;-61
2021/12/05 17:23:11;;;;;;;15.97;13.63;;;;;;;;;;5073877;28;20438;-60
2021/12/05 17:25:39;;;;;;;19.67;15.40;;;;;;;;;;5073635;28;20576;-60
2021/12/05 17:28:06;;;;;;;21.50;14.97;;;;;;;;;;5073662;28;20477;-60
2021/12/05 17:30:34;;;;;;;17.90;14.77;;;;;;;;;;5073497;28;20466;-61
2021/12/05 17:33:00;;;;;;;22.50;14.87;;;;;;;;;;5073682;28;20829;-60
2021/12/05 17:35:27;;;;;;;17.07;14.67;;;;;;;;;;5073505;28;20195;-60
2021/12/05 17:37:53;;;;;;;20.80;15.63;;;;;;;;;;5073799;28;20469;-60
2021/12/05 17:40:19;;;;;;;20.97;16.30;;;;;;;;;;5073559;28;20437;-60
2021/12/05 17:42:45;;;;;;;25.33;17.27;;;;;;;;;;5073378;28;20859;-59
2021/12/05 17:45:13;;;;;;;20.27;16.07;;;;;;;;;;5073268;28;20996;-61
2021/12/05 17:47:41;;;;;;;24.87;17.07;;;;;;;;;;5073442;28;20422;-60
2021/12/05 17:50:09;;;;;;;20.67;15.00;;;;;;;;;;5073203;28;20438;-60
2021/12/05 17:52:35;;;;;;;25.50;18.23;;;;;;;;;;5073212;28;20928;-59
2021/12/05 17:55:06;;;;;;;26.70;17.77;;;;;;;;;;5073154;28;20811;-60
2021/12/05 17:57:44;;;;;;;24.03;17.13;;;;;;;;;;5073122;28;20449;-57
2021/12/05 18:00:15;;;;;;;23.40;17.67;;;;;;;;;;5073010;28;20475;-61
2021/12/05 18:02:55;;;;;;;24.83;17.30;;;;;;;;;;5070947;28;20924;-61
2021/12/05 18:05:22;;;;;;;23.50;17.57;;;;;;;;;;5072478;28;20586;-56
2021/12/05 18:07:50;;;;;;;25.17;17.57;;;;;;;;;;5073122;28;20444;-57
2021/12/05 18:10:18;;;;;;;22.77;16.37;;;;;;;;;;5073117;28;20847;-58
2021/12/05 18:12:45;;;;;;;22.10;18.13;;;;;;;;;;5073195;28;20552;-57
2021/12/05 18:15:14;;;;;;;21.67;16.73;;;;;;;;;;5072903;28;20426;-58
2021/12/05 18:17:42;;;;;;;21.07;16.63;;;;;;;;;;5072483;28;20437;-56
2021/12/05 18:20:09;;;;;;;24.03;18.77;;;;;;;;;;5072156;28;20472;-58
2021/12/05 18:22:35;;;;;;;25.20;17.93;;;;;;;;;;5072434;28;20438;-57
2021/12/05 18:25:01;;;;;;;24.50;17.13;;;;;;;;;;5072486;28;21003;-57
2021/12/05 18:27:27;;;;;;;23.30;17.83;;;;;;;;;;5072509;28;20448;-58
2021/12/05 18:29:53;;;;;;;23.17;17.33;;;;;;;;;;5072690;28;20430;-59
2021/12/05 18:32:19;;;;;;;26.00;17.33;;;;;;;;;;5072519;28;20198;-58
2021/12/05 18:34:47;;;;;;;24.63;17.50;;;;;;;;;;5072712;28;20940;-59
2021/12/05 18:37:13;;;;;;;22.13;15.97;;;;;;;;;;5072438;28;20577;-58
2021/12/05 18:39:43;;;;;;;21.27;15.20;;;;;;;;;;5072475;28;20498;-57
2021/12/05 18:42:11;;;;;;;19.57;15.47;;;;;;;;;;5072593;28;20521;-56
2021/12/05 18:44:43;;;;;;;19.10;14.87;;;;;;;;;;5072227;28;20746;-58
2021/12/05 18:47:10;;;;;;;21.13;15.13;;;;;;;;;;5072448;28;20438;-56
2021/12/05 18:49:36;;;;;;;19.80;14.53;;;;;;;;;;5072072;28;20446;-59
2021/12/05 18:52:04;;;;;;;18.73;14.50;;;;;;;;;;5072254;28;20916;-58
2021/12/05 18:54:31;;;;;;;17.03;13.70;;;;;;;;;;5072175;28;20436;-58
2021/12/05 18:56:57;;;;;;;21.23;13.90;;;;;;;;;;5072243;28;20438;-59
2021/12/05 18:59:25;;;;;;;23.37;15.90;;;;;;;;;;5072202;28;20438;-58
2021/12/05 19:04:41;;;;;;;19.37;14.43;;;;;;;;;;5051961;28;20501;-57
2021/12/05 19:07:16;;;;;;;18.80;14.43;;;;;;;;;;5052254;28;20434;-59
2021/12/05 19:12:16;;;;;;;19.50;14.53;;;;;;;;;;5052346;28;20431;-58
2021/12/05 19:14:43;;;;;;;20.03;14.97;;;;;;;;;;5051981;28;20427;-60
2021/12/05 19:17:10;;;;;;;17.27;13.07;;;;;;;;;;5052041;28;20441;-59
2021/12/05 19:19:39;;;;;;;17.83;14.70;;;;;;;;;;5051722;28;20949;-61
2021/12/05 19:22:05;;;;;;;19.77;13.30;;;;;;;;;;5051894;28;20427;-61